sensor_id;sensor_type;location;lat;lon;timestamp;pressure;altitude;pressure_sealevel;temperature;humidity
65376;BME280;51976;47.332;9.404;2023-02-11T00:01:28;94478.47;;;-3.87;61.91
65376;BME280;51976;47.332;9.404;2023-02-11T00:03:54;94485.56;;;-3.87;62.00
65376;BME280;51976;47.332;9.404;2023-02-11T00:06:21;94465.97;;;-4.11;62.12
65376;BME280;51976;47.332;9.404;2023-02-11T00:08:47;94453.69;;;-4.63;63.35
65376;BME280;51976;47.332;9.404;2023-02-11T00:11:15;94464.44;;;-4.74;63.46
65376;BME280;51976;47.332;9.404;2023-02-11T00:13:41;94491.47;;;-4.11;62.71
65376;BME280;51976;47.332;9.404;2023-02-11T00:16:09;94488.19;;;-4.84;64.19
65376;BME280;51976;47.332;9.404;2023-02-11T00:18:34;94496.91;;;-4.48;63.38
65376;BME280;51976;47.332;9.404;2023-02-11T00:21:11;94487.41;;;-4.23;62.53
65376;BME280;51976;47.332;9.404;2023-02-11T00:23:37;94494.41;;;-4.14;62.08
65376;BME280;51976;47.332;9.404;2023-02-11T00:26:09;94494.03;;;-4.19;61.92
65376;BME280;51976;47.332;9.404;2023-02-11T00:28:35;94492.00;;;-4.25;61.91
65376;BME280;51976;47.332;9.404;2023-02-11T00:31:00;94467.56;;;-4.18;61.43
65376;BME280;51976;47.332;9.404;2023-02-11T00:33:26;94493.44;;;-4.13;61.36
65376;BME280;51976;47.332;9.404;2023-02-11T00:35:51;94491.28;;;-4.10;61.52
65376;BME280;51976;47.332;9.404;2023-02-11T00:38:17;94404.75;;;-4.74;61.56
65376;BME280;51976;47.332;9.404;2023-02-11T00:40:42;94492.78;;;-4.07;61.21
65376;BME280;51976;47.332;9.404;2023-02-11T00:43:08;94473.16;;;-3.95;60.45
65376;BME280;51976;47.332;9.404;2023-02-11T00:45:33;94483.69;;;-4.38;61.85
65376;BME280;51976;47.332;9.404;2023-02-11T00:47:58;94478.41;;;-4.21;61.90
65376;BME280;51976;47.332;9.404;2023-02-11T00:50:24;94486.00;;;-4.35;62.14
65376;BME280;51976;47.332;9.404;2023-02-11T00:52:49;94488.63;;;-4.35;62.06
65376;BME280;51976;47.332;9.404;2023-02-11T00:55:15;94452.75;;;-4.36;61.64
65376;BME280;51976;47.332;9.404;2023-02-11T00:57:41;94467.22;;;-4.58;62.39
65376;BME280;51976;47.332;9.404;2023-02-11T01:00:07;94453.56;;;-4.18;61.68
65376;BME280;51976;47.332;9.404;2023-02-11T01:02:33;94446.34;;;-4.16;61.25
65376;BME280;51976;47.332;9.404;2023-02-11T01:04:58;94452.47;;;-4.07;60.81
65376;BME280;51976;47.332;9.404;2023-02-11T01:07:24;94476.66;;;-3.86;60.13
65376;BME280;51976;47.332;9.404;2023-02-11T01:09:50;94466.84;;;-4.46;61.57
65376;BME280;51976;47.332;9.404;2023-02-11T01:12:15;94485.63;;;-3.97;60.81
65376;BME280;51976;47.332;9.404;2023-02-11T01:14:41;94438.06;;;-4.21;60.63
65376;BME280;51976;47.332;9.404;2023-02-11T01:17:06;94440.53;;;-4.46;60.96
65376;BME280;51976;47.332;9.404;2023-02-11T01:19:31;94444.41;;;-4.32;60.94
65376;BME280;51976;47.332;9.404;2023-02-11T01:21:57;94455.00;;;-4.24;61.33
65376;BME280;51976;47.332;9.404;2023-02-11T01:24:22;94454.59;;;-4.11;60.70
65376;BME280;51976;47.332;9.404;2023-02-11T01:26:48;94415.84;;;-4.45;61.26
65376;BME280;51976;47.332;9.404;2023-02-11T01:29:13;94437.50;;;-4.07;61.23
65376;BME280;51976;47.332;9.404;2023-02-11T01:31:38;94433.78;;;-4.22;61.17
65376;BME280;51976;47.332;9.404;2023-02-11T01:34:04;94428.56;;;-4.40;61.21
65376;BME280;51976;47.332;9.404;2023-02-11T01:36:29;94429.88;;;-4.36;61.31
65376;BME280;51976;47.332;9.404;2023-02-11T01:38:55;94413.25;;;-4.19;60.93
65376;BME280;51976;47.332;9.404;2023-02-11T01:41:20;94421.75;;;-4.25;61.09
65376;BME280;51976;47.332;9.404;2023-02-11T01:43:48;94336.16;;;-4.81;61.23
65376;BME280;51976;47.332;9.404;2023-02-11T01:46:33;94406.47;;;-4.47;61.57
65376;BME280;51976;47.332;9.404;2023-02-11T01:49:13;94414.59;;;-4.58;61.36
65376;BME280;51976;47.332;9.404;2023-02-11T01:51:44;94414.19;;;-4.46;61.44
65376;BME280;51976;47.332;9.404;2023-02-11T01:54:15;94406.47;;;-4.65;61.76
65376;BME280;51976;47.332;9.404;2023-02-11T01:57:01;94373.72;;;-4.88;61.55
65376;BME280;51976;47.332;9.404;2023-02-11T02:00:08;94403.66;;;-4.46;61.68
65376;BME280;51976;47.332;9.404;2023-02-11T02:02:53;94381.38;;;-4.33;60.94
65376;BME280;51976;47.332;9.404;2023-02-11T02:06:11;94398.41;;;-4.46;61.21
65376;BME280;51976;47.332;9.404;2023-02-11T02:08:30;94376.00;;;-4.50;60.78
65376;BME280;51976;47.332;9.404;2023-02-11T02:10:58;94378.97;;;-4.70;61.33
65376;BME280;51976;47.332;9.404;2023-02-11T02:13:26;94370.94;;;-4.87;62.33
65376;BME280;51976;47.332;9.404;2023-02-11T02:15:54;94390.56;;;-4.37;61.16
65376;BME280;51976;47.332;9.404;2023-02-11T02:18:47;94381.06;;;-4.30;60.82
65376;BME280;51976;47.332;9.404;2023-02-11T02:24:26;94354.06;;;-4.58;60.54
65376;BME280;51976;47.332;9.404;2023-02-11T02:27:22;94370.53;;;-4.30;60.26
65376;BME280;51976;47.332;9.404;2023-02-11T02:30:15;94375.91;;;-4.66;60.93
65376;BME280;51976;47.332;9.404;2023-02-11T02:36:03;94372.25;;;-4.21;60.23
65376;BME280;51976;47.332;9.404;2023-02-11T02:38:33;94364.94;;;-4.79;61.25
65376;BME280;51976;47.332;9.404;2023-02-11T02:41:10;94373.78;;;-4.80;61.64
65376;BME280;51976;47.332;9.404;2023-02-11T02:43:40;94365.81;;;-4.70;61.24
65376;BME280;51976;47.332;9.404;2023-02-11T02:46:23;94369.38;;;-4.54;60.82
65376;BME280;51976;47.332;9.404;2023-02-11T02:48:51;94356.47;;;-4.65;61.01
65376;BME280;51976;47.332;9.404;2023-02-11T02:51:49;94357.25;;;-4.72;61.21
65376;BME280;51976;47.332;9.404;2023-02-11T02:57:34;94339.97;;;-4.75;61.41
65376;BME280;51976;47.332;9.404;2023-02-11T03:00:15;94313.16;;;-4.79;60.89
65376;BME280;51976;47.332;9.404;2023-02-11T03:05:57;94358.47;;;-4.85;61.45
65376;BME280;51976;47.332;9.404;2023-02-11T03:08:33;94349.41;;;-4.64;60.78
65376;BME280;51976;47.332;9.404;2023-02-11T03:11:02;94355.47;;;-4.90;61.75
65376;BME280;51976;47.332;9.404;2023-02-11T03:13:31;94349.75;;;-4.85;62.00
65376;BME280;51976;47.332;9.404;2023-02-11T03:16:02;94351.22;;;-4.65;61.19
65376;BME280;51976;47.332;9.404;2023-02-11T03:18:32;94353.50;;;-4.70;61.18
65376;BME280;51976;47.332;9.404;2023-02-11T03:21:01;94351.28;;;-4.57;60.55
65376;BME280;51976;47.332;9.404;2023-02-11T03:23:43;94356.97;;;-4.69;61.27
65376;BME280;51976;47.332;9.404;2023-02-11T03:26:20;94358.78;;;-5.41;62.32
65376;BME280;51976;47.332;9.404;2023-02-11T03:29:09;94355.16;;;-4.87;61.78
65376;BME280;51976;47.332;9.404;2023-02-11T03:31:45;94352.22;;;-4.66;61.12
65376;BME280;51976;47.332;9.404;2023-02-11T03:34:31;94341.97;;;-5.13;61.69
65376;BME280;51976;47.332;9.404;2023-02-11T03:37:05;94342.19;;;-5.06;60.82
65376;BME280;51976;47.332;9.404;2023-02-11T03:39:42;94340.28;;;-4.78;61.10
65376;BME280;51976;47.332;9.404;2023-02-11T03:42:11;94315.00;;;-4.97;61.05
65376;BME280;51976;47.332;9.404;2023-02-11T03:44:43;94345.38;;;-4.77;60.76
65376;BME280;51976;47.332;9.404;2023-02-11T03:47:11;94338.31;;;-4.76;60.55
65376;BME280;51976;47.332;9.404;2023-02-11T03:49:39;94301.78;;;-5.05;60.91
65376;BME280;51976;47.332;9.404;2023-02-11T03:52:06;94339.19;;;-5.11;61.24
65376;BME280;51976;47.332;9.404;2023-02-11T03:54:35;94270.72;;;-5.27;60.65
65376;BME280;51976;47.332;9.404;2023-02-11T03:57:01;94330.16;;;-4.65;60.50
65376;BME280;51976;47.332;9.404;2023-02-11T03:59:27;94327.28;;;-4.80;60.49
65376;BME280;51976;47.332;9.404;2023-02-11T04:01:53;94269.53;;;-5.51;61.47
65376;BME280;51976;47.332;9.404;2023-02-11T04:04:19;94284.94;;;-5.12;61.07
65376;BME280;51976;47.332;9.404;2023-02-11T04:06:44;94319.22;;;-4.78;60.74
65376;BME280;51976;47.332;9.404;2023-02-11T04:09:10;94313.59;;;-4.83;60.54
65376;BME280;51976;47.332;9.404;2023-02-11T04:11:36;94213.72;;;-5.27;59.86
65376;BME280;51976;47.332;9.404;2023-02-11T04:14:01;94235.16;;;-5.75;60.98
65376;BME280;51976;47.332;9.404;2023-02-11T04:16:26;94319.66;;;-5.26;61.56
65376;BME280;51976;47.332;9.404;2023-02-11T04:18:56;94320.13;;;-4.87;61.19
65376;BME280;51976;47.332;9.404;2023-02-11T04:21:22;94314.19;;;-4.71;60.43
65376;BME280;51976;47.332;9.404;2023-02-11T04:23:47;94318.63;;;-4.72;60.46
65376;BME280;51976;47.332;9.404;2023-02-11T04:26:13;94298.91;;;-4.94;60.33
65376;BME280;51976;47.332;9.404;2023-02-11T04:28:38;94246.75;;;-5.42;60.53
65376;BME280;51976;47.332;9.404;2023-02-11T04:31:04;94325.06;;;-5.10;61.38
65376;BME280;51976;47.332;9.404;2023-02-11T04:33:29;94326.81;;;-4.75;60.17
65376;BME280;51976;47.332;9.404;2023-02-11T04:35:55;94333.47;;;-5.06;60.81
65376;BME280;51976;47.332;9.404;2023-02-11T04:38:20;94335.50;;;-5.00;60.91
65376;BME280;51976;47.332;9.404;2023-02-11T04:40:48;94276.69;;;-5.70;61.77
65376;BME280;51976;47.332;9.404;2023-02-11T04:43:13;94330.81;;;-5.77;62.66
65376;BME280;51976;47.332;9.404;2023-02-11T04:45:39;94330.09;;;-5.52;61.99
65376;BME280;51976;47.332;9.404;2023-02-11T04:48:04;94336.19;;;-5.34;61.97
65376;BME280;51976;47.332;9.404;2023-02-11T04:50:30;94338.38;;;-5.29;61.68
65376;BME280;51976;47.332;9.404;2023-02-11T04:52:55;94344.41;;;-5.64;63.19
65376;BME280;51976;47.332;9.404;2023-02-11T04:55:20;94332.38;;;-5.22;61.85
65376;BME280;51976;47.332;9.404;2023-02-11T04:57:46;94341.00;;;-5.29;62.47
65376;BME280;51976;47.332;9.404;2023-02-11T05:00:12;94341.13;;;-5.13;61.80
65376;BME280;51976;47.332;9.404;2023-02-11T05:02:37;94333.09;;;-5.12;61.59
65376;BME280;51976;47.332;9.404;2023-02-11T05:05:03;94341.66;;;-5.09;61.40
65376;BME280;51976;47.332;9.404;2023-02-11T05:07:29;94285.00;;;-5.48;61.56
65376;BME280;51976;47.332;9.404;2023-02-11T05:09:54;94348.06;;;-4.94;60.96
65376;BME280;51976;47.332;9.404;2023-02-11T05:12:19;94331.97;;;-5.09;61.19
65376;BME280;51976;47.332;9.404;2023-02-11T05:14:45;94315.81;;;-4.96;60.82
65376;BME280;51976;47.332;9.404;2023-02-11T05:17:11;94352.38;;;-4.67;60.52
65376;BME280;51976;47.332;9.404;2023-02-11T05:19:36;94353.56;;;-4.80;61.06
65376;BME280;51976;47.332;9.404;2023-02-11T05:22:02;94352.75;;;-4.80;60.96
65376;BME280;51976;47.332;9.404;2023-02-11T05:24:27;94356.53;;;-5.00;60.72
65376;BME280;51976;47.332;9.404;2023-02-11T05:26:52;94366.28;;;-5.11;61.14
65376;BME280;51976;47.332;9.404;2023-02-11T05:29:18;94379.53;;;-5.20;61.94
65376;BME280;51976;47.332;9.404;2023-02-11T05:31:44;94354.78;;;-4.92;60.57
65376;BME280;51976;47.332;9.404;2023-02-11T05:34:09;94367.81;;;-4.64;60.52
65376;BME280;51976;47.332;9.404;2023-02-11T05:36:35;94346.03;;;-5.00;60.48
65376;BME280;51976;47.332;9.404;2023-02-11T05:39:00;94372.91;;;-4.89;61.29
65376;BME280;51976;47.332;9.404;2023-02-11T05:41:26;94368.38;;;-4.79;60.82
65376;BME280;51976;47.332;9.404;2023-02-11T05:43:51;94365.41;;;-5.01;60.80
65376;BME280;51976;47.332;9.404;2023-02-11T05:46:17;94356.44;;;-4.91;61.25
65376;BME280;51976;47.332;9.404;2023-02-11T05:48:42;94338.50;;;-4.95;60.67
65376;BME280;51976;47.332;9.404;2023-02-11T05:51:08;94373.31;;;-4.58;60.56
65376;BME280;51976;47.332;9.404;2023-02-11T05:53:33;94369.06;;;-4.77;60.96
65376;BME280;51976;47.332;9.404;2023-02-11T05:55:59;94371.09;;;-4.70;61.33
65376;BME280;51976;47.332;9.404;2023-02-11T05:58:24;94373.28;;;-4.66;61.12
65376;BME280;51976;47.332;9.404;2023-02-11T06:00:50;94333.59;;;-4.72;60.34
65376;BME280;51976;47.332;9.404;2023-02-11T06:03:15;94351.25;;;-4.83;60.85
65376;BME280;51976;47.332;9.404;2023-02-11T06:05:42;94371.81;;;-4.60;60.57
65376;BME280;51976;47.332;9.404;2023-02-11T06:08:08;94373.72;;;-4.88;61.72
65376;BME280;51976;47.332;9.404;2023-02-11T06:10:33;94330.47;;;-4.94;60.93
65376;BME280;51976;47.332;9.404;2023-02-11T06:13:00;94374.03;;;-4.91;61.73
65376;BME280;51976;47.332;9.404;2023-02-11T06:15:26;94379.28;;;-4.91;61.71
65376;BME280;51976;47.332;9.404;2023-02-11T06:17:51;94383.00;;;-5.20;62.52
65376;BME280;51976;47.332;9.404;2023-02-11T06:20:17;94367.44;;;-4.95;61.71
65376;BME280;51976;47.332;9.404;2023-02-11T06:22:42;94377.97;;;-4.95;62.28
65376;BME280;51976;47.332;9.404;2023-02-11T06:25:08;94377.94;;;-4.78;62.23
65376;BME280;51976;47.332;9.404;2023-02-11T06:27:35;94375.25;;;-4.60;61.87
65376;BME280;51976;47.332;9.404;2023-02-11T06:30:00;94377.19;;;-4.70;61.76
65376;BME280;51976;47.332;9.404;2023-02-11T06:32:26;94383.25;;;-4.87;61.66
65376;BME280;51976;47.332;9.404;2023-02-11T06:34:52;94363.97;;;-5.14;62.09
65376;BME280;51976;47.332;9.404;2023-02-11T06:37:17;94383.34;;;-5.15;62.44
65376;BME280;51976;47.332;9.404;2023-02-11T06:39:43;94372.19;;;-5.44;63.31
65376;BME280;51976;47.332;9.404;2023-02-11T06:42:09;94383.44;;;-5.06;61.99
65376;BME280;51976;47.332;9.404;2023-02-11T06:44:34;94397.88;;;-4.93;61.21
65376;BME280;51976;47.332;9.404;2023-02-11T06:47:00;94327.59;;;-5.18;61.38
65376;BME280;51976;47.332;9.404;2023-02-11T06:49:25;94384.91;;;-4.86;61.70
65376;BME280;51976;47.332;9.404;2023-02-11T06:51:51;94389.41;;;-4.61;61.08
65376;BME280;51976;47.332;9.404;2023-02-11T06:54:16;94385.97;;;-4.79;61.46
65376;BME280;51976;47.332;9.404;2023-02-11T06:56:41;94383.56;;;-4.90;61.80
65376;BME280;51976;47.332;9.404;2023-02-11T06:59:07;94329.13;;;-5.51;62.43
65376;BME280;51976;47.332;9.404;2023-02-11T07:01:32;94374.19;;;-5.11;62.51
65376;BME280;51976;47.332;9.404;2023-02-11T07:03:58;94362.38;;;-4.89;61.68
65376;BME280;51976;47.332;9.404;2023-02-11T07:06:25;94372.69;;;-4.95;62.03
65376;BME280;51976;47.332;9.404;2023-02-11T07:08:52;94307.09;;;-4.97;61.35
65376;BME280;51976;47.332;9.404;2023-02-11T07:11:23;94360.28;;;-4.41;61.04
65376;BME280;51976;47.332;9.404;2023-02-11T07:13:50;94357.69;;;-4.33;60.60
65376;BME280;51976;47.332;9.404;2023-02-11T07:16:17;94342.53;;;-4.65;61.08
65376;BME280;51976;47.332;9.404;2023-02-11T07:18:43;94361.34;;;-4.52;61.50
65376;BME280;51976;47.332;9.404;2023-02-11T07:21:11;94351.59;;;-4.34;60.98
65376;BME280;51976;47.332;9.404;2023-02-11T07:23:37;94341.84;;;-4.67;61.67
65376;BME280;51976;47.332;9.404;2023-02-11T07:26:05;94340.03;;;-4.41;61.27
65376;BME280;51976;47.332;9.404;2023-02-11T07:28:33;94320.81;;;-4.33;60.52
65376;BME280;51976;47.332;9.404;2023-02-11T07:31:08;94333.78;;;-4.14;60.71
65376;BME280;51976;47.332;9.404;2023-02-11T07:33:35;94325.28;;;-4.00;60.20
65376;BME280;51976;47.332;9.404;2023-02-11T07:36:01;94330.84;;;-4.03;60.19
65376;BME280;51976;47.332;9.404;2023-02-11T07:38:27;94304.81;;;-4.14;60.62
65376;BME280;51976;47.332;9.404;2023-02-11T07:40:52;94325.56;;;-4.11;60.79
65376;BME280;51976;47.332;9.404;2023-02-11T07:43:18;94314.25;;;-3.95;60.58
65376;BME280;51976;47.332;9.404;2023-02-11T07:45:43;94313.44;;;-3.96;60.33
65376;BME280;51976;47.332;9.404;2023-02-11T07:48:08;94301.38;;;-4.06;60.44
65376;BME280;51976;47.332;9.404;2023-02-11T07:50:34;94319.84;;;-3.56;59.98
65376;BME280;51976;47.332;9.404;2023-02-11T07:52:59;94320.50;;;-3.96;60.83
65376;BME280;51976;47.332;9.404;2023-02-11T07:55:25;94292.31;;;-4.12;61.03
65376;BME280;51976;47.332;9.404;2023-02-11T07:57:50;94304.59;;;-3.79;60.63
65376;BME280;51976;47.332;9.404;2023-02-11T08:00:16;94319.41;;;-3.86;61.30
65376;BME280;51976;47.332;9.404;2023-02-11T08:02:41;94312.16;;;-3.92;60.69
65376;BME280;51976;47.332;9.404;2023-02-11T08:05:07;94328.84;;;-4.09;61.46
65376;BME280;51976;47.332;9.404;2023-02-11T08:07:32;94334.97;;;-3.66;60.84
65376;BME280;51976;47.332;9.404;2023-02-11T08:09:58;94332.91;;;-3.81;61.23
65376;BME280;51976;47.332;9.404;2023-02-11T08:12:23;94341.91;;;-3.49;60.22
65376;BME280;51976;47.332;9.404;2023-02-11T08:14:49;94345.28;;;-3.31;60.12
65376;BME280;51976;47.332;9.404;2023-02-11T08:17:15;94333.78;;;-3.05;60.08
65376;BME280;51976;47.332;9.404;2023-02-11T08:19:41;94345.31;;;-2.58;58.85
65376;BME280;51976;47.332;9.404;2023-02-11T08:22:07;94331.59;;;-2.45;58.93
65376;BME280;51976;47.332;9.404;2023-02-11T08:24:32;94317.91;;;-2.41;58.11
65376;BME280;51976;47.332;9.404;2023-02-11T08:26:57;94338.69;;;-2.21;57.79
65376;BME280;51976;47.332;9.404;2023-02-11T08:29:23;94278.38;;;-2.81;58.59
65376;BME280;51976;47.332;9.404;2023-02-11T08:31:48;94335.88;;;-2.36;58.66
65376;BME280;51976;47.332;9.404;2023-02-11T08:34:14;94333.69;;;-2.08;58.80
65376;BME280;51976;47.332;9.404;2023-02-11T08:36:43;94329.69;;;-1.96;58.92
65376;BME280;51976;47.332;9.404;2023-02-11T08:39:17;94340.22;;;-1.80;58.04
65376;BME280;51976;47.332;9.404;2023-02-11T08:41:43;94244.63;;;-2.39;57.56
65376;BME280;51976;47.332;9.404;2023-02-11T08:44:08;94322.44;;;-1.63;57.20
65376;BME280;51976;47.332;9.404;2023-02-11T08:46:34;94330.28;;;-1.69;57.32
65376;BME280;51976;47.332;9.404;2023-02-11T08:48:59;94314.78;;;-1.89;57.74
65376;BME280;51976;47.332;9.404;2023-02-11T08:51:27;94333.59;;;-1.84;58.46
65376;BME280;51976;47.332;9.404;2023-02-11T08:53:55;94336.56;;;-1.71;58.54
65376;BME280;51976;47.332;9.404;2023-02-11T08:56:21;94316.47;;;-1.57;57.58
65376;BME280;51976;47.332;9.404;2023-02-11T08:58:50;94332.19;;;-1.24;57.39
65376;BME280;51976;47.332;9.404;2023-02-11T09:01:27;94296.84;;;-1.09;56.37
65376;BME280;51976;47.332;9.404;2023-02-11T09:03:53;94321.69;;;-0.87;55.95
65376;BME280;51976;47.332;9.404;2023-02-11T09:06:19;94325.03;;;-0.93;55.16
65376;BME280;51976;47.332;9.404;2023-02-11T09:08:47;94325.72;;;-0.76;54.55
65376;BME280;51976;47.332;9.404;2023-02-11T09:11:14;94325.44;;;-0.58;54.30
65376;BME280;51976;47.332;9.404;2023-02-11T09:13:41;94325.53;;;-0.52;53.82
65376;BME280;51976;47.332;9.404;2023-02-11T09:16:07;94265.25;;;-0.64;53.06
65376;BME280;51976;47.332;9.404;2023-02-11T09:18:33;94321.56;;;-0.71;54.50
65376;BME280;51976;47.332;9.404;2023-02-11T09:21:02;94347.16;;;-0.86;57.19
65376;BME280;51976;47.332;9.404;2023-02-11T09:23:27;94328.84;;;-0.73;57.16
65376;BME280;51976;47.332;9.404;2023-02-11T09:25:54;94277.44;;;-0.41;55.46
65376;BME280;51976;47.332;9.404;2023-02-11T09:28:19;94283.41;;;-0.09;54.41
65376;BME280;51976;47.332;9.404;2023-02-11T09:30:45;94303.31;;;0.02;54.31
65376;BME280;51976;47.332;9.404;2023-02-11T09:33:10;94193.47;;;-0.55;54.15
65376;BME280;51976;47.332;9.404;2023-02-11T09:35:35;94288.50;;;0.07;53.91
65376;BME280;51976;47.332;9.404;2023-02-11T09:38:01;94299.00;;;0.45;53.27
65376;BME280;51976;47.332;9.404;2023-02-11T09:40:26;94313.84;;;0.24;51.06
65376;BME280;51976;47.332;9.404;2023-02-11T09:43:05;94323.50;;;0.61;51.03
65376;BME280;51976;47.332;9.404;2023-02-11T09:45:33;94262.16;;;0.35;51.55
65376;BME280;51976;47.332;9.404;2023-02-11T09:48:13;94303.84;;;0.56;51.47
65376;BME280;51976;47.332;9.404;2023-02-11T09:50:43;94327.47;;;0.87;51.91
65376;BME280;51976;47.332;9.404;2023-02-11T09:53:19;94289.13;;;0.89;52.16
65376;BME280;51976;47.332;9.404;2023-02-11T09:55:51;94313.03;;;1.11;51.95
65376;BME280;51976;47.332;9.404;2023-02-11T09:58:30;94265.78;;;0.85;51.43
65376;BME280;51976;47.332;9.404;2023-02-11T10:01:28;94306.31;;;0.93;49.28
65376;BME280;51976;47.332;9.404;2023-02-11T10:05:01;94326.00;;;0.99;47.51
65376;BME280;51976;47.332;9.404;2023-02-11T10:07:06;94294.75;;;0.80;47.98
65376;BME280;51976;47.332;9.404;2023-02-11T10:10:08;94336.69;;;1.06;48.64
65376;BME280;51976;47.332;9.404;2023-02-11T10:13:10;94339.59;;;1.11;49.17
65376;BME280;51976;47.332;9.404;2023-02-11T10:16:02;94310.06;;;0.99;49.69
65376;BME280;51976;47.332;9.404;2023-02-11T10:21:58;94336.59;;;1.35;50.28
65376;BME280;51976;47.332;9.404;2023-02-11T10:24:24;94331.84;;;1.30;50.50
65376;BME280;51976;47.332;9.404;2023-02-11T10:26:52;94338.53;;;1.48;50.48
65376;BME280;51976;47.332;9.404;2023-02-11T10:29:39;94332.66;;;1.52;50.83
65376;BME280;51976;47.332;9.404;2023-02-11T10:32:15;94331.22;;;1.28;50.38
65376;BME280;51976;47.332;9.404;2023-02-11T10:34:47;94323.72;;;1.39;51.12
65376;BME280;51976;47.332;9.404;2023-02-11T10:37:12;94322.66;;;1.54;50.95
65376;BME280;51976;47.332;9.404;2023-02-11T10:39:39;94348.69;;;1.65;50.97
65376;BME280;51976;47.332;9.404;2023-02-11T10:42:09;94347.31;;;1.69;51.11
65376;BME280;51976;47.332;9.404;2023-02-11T10:44:48;94342.06;;;1.76;51.39
65376;BME280;51976;47.332;9.404;2023-02-11T10:47:23;94339.78;;;1.73;51.66
65376;BME280;51976;47.332;9.404;2023-02-11T10:49:50;94332.81;;;1.72;51.81
65376;BME280;51976;47.332;9.404;2023-02-11T10:52:24;94332.56;;;1.88;51.45
65376;BME280;51976;47.332;9.404;2023-02-11T10:54:59;94336.38;;;1.79;51.86
65376;BME280;51976;47.332;9.404;2023-02-11T10:57:30;94328.91;;;1.96;51.21
65376;BME280;51976;47.332;9.404;2023-02-11T11:00:00;94308.66;;;1.95;50.75
65376;BME280;51976;47.332;9.404;2023-02-11T11:02:29;94316.09;;;2.06;50.73
65376;BME280;51976;47.332;9.404;2023-02-11T11:05:14;94307.50;;;2.04;50.85
65376;BME280;51976;47.332;9.404;2023-02-11T11:07:51;94273.25;;;1.94;50.28
65376;BME280;51976;47.332;9.404;2023-02-11T11:10:41;94309.03;;;2.20;49.99
65376;BME280;51976;47.332;9.404;2023-02-11T11:13:24;94290.41;;;1.92;49.80
65376;BME280;51976;47.332;9.404;2023-02-11T11:16:15;94294.69;;;2.14;49.78
65376;BME280;51976;47.332;9.404;2023-02-11T11:18:46;94301.22;;;2.53;49.96
65376;BME280;51976;47.332;9.404;2023-02-11T11:21:23;94292.25;;;2.60;49.03
65376;BME280;51976;47.332;9.404;2023-02-11T11:23:55;94284.31;;;2.73;49.11
65376;BME280;51976;47.332;9.404;2023-02-11T11:26:23;94250.75;;;2.72;48.94
65376;BME280;51976;47.332;9.404;2023-02-11T11:28:56;94268.56;;;2.72;48.37
65376;BME280;51976;47.332;9.404;2023-02-11T11:31:32;94266.72;;;2.72;48.62
65376;BME280;51976;47.332;9.404;2023-02-11T11:34:00;94204.78;;;2.51;48.15
65376;BME280;51976;47.332;9.404;2023-02-11T11:36:33;94265.78;;;3.00;48.13
65376;BME280;51976;47.332;9.404;2023-02-11T11:39:09;94191.06;;;2.54;48.18
65376;BME280;51976;47.332;9.404;2023-02-11T11:41:52;94264.78;;;3.21;47.65
65376;BME280;51976;47.332;9.404;2023-02-11T11:44:24;94250.84;;;3.19;47.63
65376;BME280;51976;47.332;9.404;2023-02-11T11:47:21;94262.16;;;3.47;47.33
65376;BME280;51976;47.332;9.404;2023-02-11T11:50:11;94261.72;;;3.57;46.39
65376;BME280;51976;47.332;9.404;2023-02-11T11:52:49;94245.13;;;3.48;46.25
65376;BME280;51976;47.332;9.404;2023-02-11T11:55:32;94268.72;;;3.71;45.89
65376;BME280;51976;47.332;9.404;2023-02-11T11:57:59;94262.34;;;3.65;45.92
65376;BME280;51976;47.332;9.404;2023-02-11T12:01:08;94255.59;;;3.83;45.98
65376;BME280;51976;47.332;9.404;2023-02-11T12:07:05;94268.72;;;3.97;44.39
65376;BME280;51976;47.332;9.404;2023-02-11T12:09:48;94243.50;;;3.73;42.31
65376;BME280;51976;47.332;9.404;2023-02-11T12:12:36;94268.28;;;3.87;40.65
65376;BME280;51976;47.332;9.404;2023-02-11T12:15:27;94265.66;;;3.74;41.88
65376;BME280;51976;47.332;9.404;2023-02-11T12:18:15;94260.31;;;3.74;42.84
65376;BME280;51976;47.332;9.404;2023-02-11T12:21:58;94266.25;;;3.76;42.08
65376;BME280;51976;47.332;9.404;2023-02-11T12:24:05;94247.19;;;3.72;40.72
65376;BME280;51976;47.332;9.404;2023-02-11T12:26:46;94270.94;;;4.14;41.13
65376;BME280;51976;47.332;9.404;2023-02-11T12:29:30;94258.13;;;4.42;42.64
65376;BME280;51976;47.332;9.404;2023-02-11T12:32:08;94205.63;;;4.23;43.29
65376;BME280;51976;47.332;9.404;2023-02-11T12:35:08;94243.25;;;4.08;43.52
65376;BME280;51976;47.332;9.404;2023-02-11T12:38:16;94247.56;;;4.09;42.05
65376;BME280;51976;47.332;9.404;2023-02-11T12:40:42;94210.63;;;3.86;43.61
65376;BME280;51976;47.332;9.404;2023-02-11T12:43:36;94234.00;;;4.04;44.82
65376;BME280;51976;47.332;9.404;2023-02-11T12:46:44;94189.28;;;3.99;45.08
65376;BME280;51976;47.332;9.404;2023-02-11T12:49:22;94232.75;;;4.13;46.03
65376;BME280;51976;47.332;9.404;2023-02-11T12:52:14;94237.97;;;4.53;45.57
65376;BME280;51976;47.332;9.404;2023-02-11T12:54:53;94200.09;;;4.24;45.05
65376;BME280;51976;47.332;9.404;2023-02-11T12:57:22;94195.56;;;4.31;43.03
65376;BME280;51976;47.332;9.404;2023-02-11T13:00:15;94225.66;;;4.52;43.15
65376;BME280;51976;47.332;9.404;2023-02-11T13:02:58;94196.94;;;4.40;41.81
65376;BME280;51976;47.332;9.404;2023-02-11T13:05:32;94214.88;;;4.71;41.36
65376;BME280;51976;47.332;9.404;2023-02-11T13:08:15;94218.03;;;4.62;42.94
65376;BME280;51976;47.332;9.404;2023-02-11T13:10:46;94219.47;;;4.58;44.39
65376;BME280;51976;47.332;9.404;2023-02-11T13:13:25;94224.44;;;4.48;46.17
65376;BME280;51976;47.332;9.404;2023-02-11T13:16:05;94187.13;;;4.28;46.50
65376;BME280;51976;47.332;9.404;2023-02-11T13:18:48;94219.47;;;4.58;45.17
65376;BME280;51976;47.332;9.404;2023-02-11T13:21:48;94220.75;;;4.49;45.39
65376;BME280;51976;47.332;9.404;2023-02-11T13:24:45;94112.41;;;3.77;45.23
65376;BME280;51976;47.332;9.404;2023-02-11T13:27:24;94226.84;;;4.62;44.92
65376;BME280;51976;47.332;9.404;2023-02-11T13:30:26;94216.72;;;4.71;45.18
65376;BME280;51976;47.332;9.404;2023-02-11T13:33:20;94184.38;;;4.48;45.52
65376;BME280;51976;47.332;9.404;2023-02-11T13:36:11;94228.31;;;4.52;46.11
65376;BME280;51976;47.332;9.404;2023-02-11T13:38:37;94212.31;;;4.52;46.75
65376;BME280;51976;47.332;9.404;2023-02-11T13:41:22;94176.88;;;4.31;46.35
65376;BME280;51976;47.332;9.404;2023-02-11T13:44:17;94219.69;;;4.56;46.67
65376;BME280;51976;47.332;9.404;2023-02-11T13:46:55;94219.47;;;4.58;47.54